Главная страница
METAR-TAF:

METAR-TAF

Аэропорты :

Кристианстад, Швеция

широта: 55-55N, долгота: 014-05E, высота над уровнем моря: 23 м

Текущие метеонаблюдения

Эта сводка был подготовлена 14 минут назад, в 10:20 UTC
Ветер 12 Узел от северо-западный
Температура 7°C
Влажность 70%
Давление 1025 hPa
Видимость 10 км и более
Нет облачности ниже 1500 м, и нет кучево-дождевой облачности

METAR: ESMK 221020Z 32012KT CAVOK 07/02 Q1025

Время: 11:34 (10:34 UTC)

Прогноз

Эта сводка был подготовлена 2 часа и 23 минут назад, в 08:11 UTC
Прогноз действительный с 22-го 09 UTC до 22-го 18 UTC
Ветер 15 Узел от западно-северо-западный
Видимость 10 км и более
Отдельные облака на высоте 2000 фута

TAF: ESMK 220811Z 2209/2218 30015KT 9999 SCT020

Метеонаблюдения и прогнозы для более 4000 аэропортов (сводки METAR и TAF).

Имеющиеся станции представлены на карте желтыми и красными точками.

Чтобы увидеть название станции, наведите на нее мышь.

Затем щелкните, чтобы увидеть метеонаблюдения и метеопрогнозы.

Управление картой: чтобы увеличить масштаб, щелкните зеленые кнопки с черным крестиком; чтобы уменьшить масштаб, щелкните зеленую кнопку с тире; для просмотра соседних карт щелкайте зеленые стрелки.


METAR-TAF: